Terminal Aerodrome Forecast
Issued by NWS Wilmington, OH

Home | Current Version | Previous Version | Text Only | Print | Product List | Glossary On
Versions: 1 2 3 4 5 6 7 8 9 10 11 12 13 14 15 16 17 18 19 20 21 22 23 24 25 26 27 28 29 30
000
FTUS41 KILN 281740
TAFCVG
TAF
KCVG 281740Z 2818/2924 27005KT P6SM VCTS SCT025CB BKN035
     FM282100 32005KT P6SM VCSH BKN035
     FM282300 VRB03KT P6SM BKN035
     FM290600 00000KT 4SM BR SCT035
     FM291000 00000KT 2SM BR FEW035 SCT250
     FM291300 28005KT P6SM SCT150 BKN250
     FM292000 28009KT P6SM -SHRA VCTS BKN035CB=

USA.gov is the U.S. government's official web portal to all federal, state and local government web resources and services.